Keyes, OK (73947)

2:30 PM CDT on July 29, 2016 (GMT -0500)
McDaniel Farm | | Change Station

Elev 3957 ft 36.46 °N, 102.32 °W | Updated 22 seconds ago

Scattered Clouds
Scattered Clouds
81.7 °F
Feels Like 79 °F
N
9.2
Wind Variable Wind from South
Gusts 9.8 mph

Today
High -- | Low -- °F
--% Chance of Precip.
Yesterday
High -- | Low -- °F
Precip. -- in
Pressure 29.91 in
Visibility 10.0 miles
Clouds Few 5000 ft
Scattered Clouds 7500 ft
Heat Index 79 °F
Dew Point 20 °F
Humidity 10%
Rainfall 0.04 in
Snow Depth Not available.
6:52 AM 8:57 PM
Waning Crescent, 19% visible
METAR KCAO 291855Z AUTO 15013G23KT 10SM FEW050 SCT075 29/16 A3015 RMK AO2 SLP126 T02940161
Pressure 29.91 in
Visibility 10.0 miles
Clouds Few 5000 ft
Scattered Clouds 7500 ft
Heat Index 79 °F
Dew Point 20 °F
Humidity 10%
Rainfall 0.04 in
Snow Depth Not available.
6:52 AM 8:57 PM
Waning Crescent, 19% visible
METAR KCAO 291855Z AUTO 15013G23KT 10SM FEW050 SCT075 29/16 A3015 RMK AO2 SLP126 T02940161

10-Day Weather Forecast

Almanac

Astronomy

Jul. 29, 2016 Rise Set
Actual Time
Civil Twilight
Nautical Twilight
Astronomical Twilight
Moon
Length of Visible Light
Length of Day
Tomorrow will be .
, % of the Moon is Illuminated

Today's Extremes

State Highs State Lows

Community

WunderPhotos

Upload Photos

1,928,399 photos uploaded!

WunderBlog® & News

Nearby

Air Quality

  Air Quality AQ Index Pollutant
Not available.

Snow Depth

Station Depth Elevation

Earthquake Activity

City Distance Mag. Time & Date
Minimum magnitude displayed is 2.5.

Coastal Water Temperatures

Place Temperature

Stations

Nearby Weather Stations

Station Location Temp. Windchill Dew Point Humidity Wind Precip. Elev Updated Type
                   

Watches & Warnings

There are currently no watches in effect.